sensor_id;sensor_type;location;lat;lon;timestamp;P1;durP1;ratioP1;P2;durP2;ratioP2
11247;SDS011;5681;53.316;13.950;2024-01-15T00:01:55;14.20;;;10.90;;
11247;SDS011;5681;53.316;13.950;2024-01-15T00:04:27;15.40;;;11.00;;
11247;SDS011;5681;53.316;13.950;2024-01-15T00:06:53;17.17;;;12.03;;
11247;SDS011;5681;53.316;13.950;2024-01-15T00:09:19;16.27;;;11.63;;
11247;SDS011;5681;53.316;13.950;2024-01-15T00:11:47;17.70;;;11.73;;
11247;SDS011;5681;53.316;13.950;2024-01-15T00:14:13;17.30;;;12.13;;
11247;SDS011;5681;53.316;13.950;2024-01-15T00:16:44;17.13;;;10.87;;
11247;SDS011;5681;53.316;13.950;2024-01-15T00:19:11;18.80;;;11.93;;
11247;SDS011;5681;53.316;13.950;2024-01-15T00:21:37;17.43;;;12.50;;
11247;SDS011;5681;53.316;13.950;2024-01-15T00:24:04;16.33;;;12.07;;
11247;SDS011;5681;53.316;13.950;2024-01-15T00:26:30;16.70;;;11.57;;
11247;SDS011;5681;53.316;13.950;2024-01-15T00:28:58;16.67;;;11.63;;
11247;SDS011;5681;53.316;13.950;2024-01-15T00:31:24;15.80;;;11.30;;
11247;SDS011;5681;53.316;13.950;2024-01-15T00:33:52;15.73;;;11.47;;
11247;SDS011;5681;53.316;13.950;2024-01-15T00:36:18;16.03;;;11.60;;
11247;SDS011;5681;53.316;13.950;2024-01-15T00:38:45;14.73;;;10.60;;
11247;SDS011;5681;53.316;13.950;2024-01-15T00:41:12;15.13;;;10.73;;
11247;SDS011;5681;53.316;13.950;2024-01-15T00:43:38;14.73;;;10.87;;
11247;SDS011;5681;53.316;13.950;2024-01-15T00:46:06;15.20;;;10.87;;
11247;SDS011;5681;53.316;13.950;2024-01-15T00:48:33;14.60;;;10.97;;
11247;SDS011;5681;53.316;13.950;2024-01-15T00:50:59;15.30;;;11.17;;
11247;SDS011;5681;53.316;13.950;2024-01-15T00:53:26;15.73;;;10.50;;
11247;SDS011;5681;53.316;13.950;2024-01-15T00:55:52;12.30;;;9.50;;
11247;SDS011;5681;53.316;13.950;2024-01-15T00:58:18;12.97;;;9.20;;
11247;SDS011;5681;53.316;13.950;2024-01-15T01:00:45;13.13;;;8.93;;
11247;SDS011;5681;53.316;13.950;2024-01-15T01:03:12;11.57;;;8.10;;
11247;SDS011;5681;53.316;13.950;2024-01-15T01:05:39;10.27;;;7.70;;
11247;SDS011;5681;53.316;13.950;2024-01-15T01:08:05;11.17;;;7.83;;
11247;SDS011;5681;53.316;13.950;2024-01-15T01:10:31;11.00;;;6.80;;
11247;SDS011;5681;53.316;13.950;2024-01-15T01:12:58;8.90;;;5.97;;
11247;SDS011;5681;53.316;13.950;2024-01-15T01:15:24;8.13;;;5.97;;
11247;SDS011;5681;53.316;13.950;2024-01-15T01:17:50;10.67;;;5.90;;
11247;SDS011;5681;53.316;13.950;2024-01-15T01:20:18;10.77;;;5.67;;
11247;SDS011;5681;53.316;13.950;2024-01-15T01:22:45;11.67;;;5.03;;
11247;SDS011;5681;53.316;13.950;2024-01-15T01:25:12;10.47;;;5.10;;
11247;SDS011;5681;53.316;13.950;2024-01-15T01:27:38;12.23;;;5.03;;
11247;SDS011;5681;53.316;13.950;2024-01-15T01:30:05;10.17;;;5.03;;
11247;SDS011;5681;53.316;13.950;2024-01-15T01:32:32;11.10;;;3.97;;
11247;SDS011;5681;53.316;13.950;2024-01-15T01:34:59;12.30;;;3.93;;
11247;SDS011;5681;53.316;13.950;2024-01-15T01:37:26;9.03;;;3.73;;
11247;SDS011;5681;53.316;13.950;2024-01-15T01:39:53;8.40;;;3.10;;
11247;SDS011;5681;53.316;13.950;2024-01-15T01:42:19;9.90;;;3.50;;
11247;SDS011;5681;53.316;13.950;2024-01-15T01:44:45;6.07;;;3.20;;
11247;SDS011;5681;53.316;13.950;2024-01-15T01:47:12;10.10;;;3.80;;
11247;SDS011;5681;53.316;13.950;2024-01-15T01:49:39;9.97;;;3.37;;
11247;SDS011;5681;53.316;13.950;2024-01-15T01:52:05;8.13;;;2.93;;
11247;SDS011;5681;53.316;13.950;2024-01-15T01:54:33;6.27;;;2.87;;
11247;SDS011;5681;53.316;13.950;2024-01-15T01:57:00;10.97;;;3.10;;
11247;SDS011;5681;53.316;13.950;2024-01-15T01:59:28;7.40;;;2.73;;
11247;SDS011;5681;53.316;13.950;2024-01-15T02:01:54;5.50;;;3.00;;
11247;SDS011;5681;53.316;13.950;2024-01-15T02:04:21;8.17;;;3.00;;
11247;SDS011;5681;53.316;13.950;2024-01-15T02:06:48;5.23;;;2.80;;
11247;SDS011;5681;53.316;13.950;2024-01-15T02:09:14;8.17;;;3.07;;
11247;SDS011;5681;53.316;13.950;2024-01-15T02:11:42;10.33;;;3.30;;
11247;SDS011;5681;53.316;13.950;2024-01-15T02:14:09;9.57;;;2.90;;
11247;SDS011;5681;53.316;13.950;2024-01-15T02:16:35;11.20;;;2.93;;
11247;SDS011;5681;53.316;13.950;2024-01-15T02:19:02;8.33;;;3.03;;
11247;SDS011;5681;53.316;13.950;2024-01-15T02:21:28;7.73;;;2.70;;
11247;SDS011;5681;53.316;13.950;2024-01-15T02:23:57;10.07;;;3.07;;
11247;SDS011;5681;53.316;13.950;2024-01-15T02:26:24;8.00;;;3.10;;
11247;SDS011;5681;53.316;13.950;2024-01-15T02:28:50;24.10;;;12.03;;
11247;SDS011;5681;53.316;13.950;2024-01-15T02:31:17;23.83;;;11.57;;
11247;SDS011;5681;53.316;13.950;2024-01-15T02:33:43;10.77;;;6.20;;
11247;SDS011;5681;53.316;13.950;2024-01-15T02:36:11;10.17;;;4.37;;
11247;SDS011;5681;53.316;13.950;2024-01-15T02:38:37;7.50;;;3.50;;
11247;SDS011;5681;53.316;13.950;2024-01-15T02:41:05;9.00;;;3.37;;
11247;SDS011;5681;53.316;13.950;2024-01-15T02:43:31;9.23;;;3.20;;
11247;SDS011;5681;53.316;13.950;2024-01-15T02:45:58;10.27;;;3.20;;
11247;SDS011;5681;53.316;13.950;2024-01-15T02:48:24;7.17;;;2.63;;
11247;SDS011;5681;53.316;13.950;2024-01-15T02:50:50;9.00;;;3.43;;
11247;SDS011;5681;53.316;13.950;2024-01-15T02:53:17;8.23;;;2.83;;
11247;SDS011;5681;53.316;13.950;2024-01-15T02:55:43;5.77;;;2.80;;
11247;SDS011;5681;53.316;13.950;2024-01-15T02:58:11;9.27;;;2.60;;
11247;SDS011;5681;53.316;13.950;2024-01-15T03:00:37;8.20;;;3.03;;
11247;SDS011;5681;53.316;13.950;2024-01-15T03:03:03;10.50;;;2.70;;
11247;SDS011;5681;53.316;13.950;2024-01-15T03:05:30;9.17;;;3.53;;
11247;SDS011;5681;53.316;13.950;2024-01-15T03:07:56;12.03;;;3.30;;
11247;SDS011;5681;53.316;13.950;2024-01-15T03:10:22;10.50;;;2.97;;
11247;SDS011;5681;53.316;13.950;2024-01-15T03:12:49;12.40;;;3.30;;
11247;SDS011;5681;53.316;13.950;2024-01-15T03:15:17;13.40;;;2.90;;
11247;SDS011;5681;53.316;13.950;2024-01-15T03:17:44;10.60;;;3.43;;
11247;SDS011;5681;53.316;13.950;2024-01-15T03:20:10;10.53;;;3.20;;
11247;SDS011;5681;53.316;13.950;2024-01-15T03:22:37;11.77;;;3.10;;
11247;SDS011;5681;53.316;13.950;2024-01-15T03:25:04;10.63;;;3.10;;
11247;SDS011;5681;53.316;13.950;2024-01-15T03:27:30;9.73;;;3.77;;
11247;SDS011;5681;53.316;13.950;2024-01-15T03:29:57;12.83;;;3.70;;
11247;SDS011;5681;53.316;13.950;2024-01-15T03:32:24;12.23;;;3.33;;
11247;SDS011;5681;53.316;13.950;2024-01-15T03:34:51;7.70;;;3.17;;
11247;SDS011;5681;53.316;13.950;2024-01-15T03:37:17;8.30;;;3.33;;
11247;SDS011;5681;53.316;13.950;2024-01-15T03:39:44;29.97;;;20.07;;
11247;SDS011;5681;53.316;13.950;2024-01-15T03:42:11;11.23;;;5.57;;
11247;SDS011;5681;53.316;13.950;2024-01-15T03:44:37;12.13;;;4.43;;
11247;SDS011;5681;53.316;13.950;2024-01-15T03:47:03;9.23;;;3.63;;
11247;SDS011;5681;53.316;13.950;2024-01-15T03:49:31;7.93;;;2.80;;
11247;SDS011;5681;53.316;13.950;2024-01-15T03:51:57;9.50;;;3.27;;
11247;SDS011;5681;53.316;13.950;2024-01-15T03:54:24;22.70;;;15.50;;
11247;SDS011;5681;53.316;13.950;2024-01-15T03:56:50;17.40;;;8.10;;
11247;SDS011;5681;53.316;13.950;2024-01-15T03:59:17;7.37;;;3.33;;
11247;SDS011;5681;53.316;13.950;2024-01-15T04:01:47;11.63;;;3.17;;
11247;SDS011;5681;53.316;13.950;2024-01-15T04:04:14;13.03;;;3.20;;
11247;SDS011;5681;53.316;13.950;2024-01-15T04:06:42;10.30;;;3.83;;
11247;SDS011;5681;53.316;13.950;2024-01-15T04:09:08;7.10;;;2.83;;
11247;SDS011;5681;53.316;13.950;2024-01-15T04:11:35;6.10;;;2.87;;
11247;SDS011;5681;53.316;13.950;2024-01-15T04:14:01;11.83;;;3.87;;
11247;SDS011;5681;53.316;13.950;2024-01-15T04:16:27;12.57;;;4.53;;
11247;SDS011;5681;53.316;13.950;2024-01-15T04:18:54;12.07;;;4.70;;
11247;SDS011;5681;53.316;13.950;2024-01-15T04:21:20;12.73;;;5.00;;
11247;SDS011;5681;53.316;13.950;2024-01-15T04:23:48;9.30;;;7.07;;
11247;SDS011;5681;53.316;13.950;2024-01-15T04:26:14;9.20;;;3.40;;
11247;SDS011;5681;53.316;13.950;2024-01-15T04:28:40;10.67;;;5.20;;
11247;SDS011;5681;53.316;13.950;2024-01-15T04:31:07;11.83;;;4.37;;
11247;SDS011;5681;53.316;13.950;2024-01-15T04:33:33;11.73;;;3.20;;
11247;SDS011;5681;53.316;13.950;2024-01-15T04:36:01;11.60;;;3.90;;
11247;SDS011;5681;53.316;13.950;2024-01-15T04:38:28;10.43;;;3.37;;
11247;SDS011;5681;53.316;13.950;2024-01-15T04:40:55;13.33;;;3.20;;
11247;SDS011;5681;53.316;13.950;2024-01-15T04:43:22;11.93;;;2.80;;
11247;SDS011;5681;53.316;13.950;2024-01-15T04:45:48;9.30;;;2.80;;
11247;SDS011;5681;53.316;13.950;2024-01-15T04:48:15;8.80;;;3.00;;
11247;SDS011;5681;53.316;13.950;2024-01-15T04:50:41;9.20;;;2.57;;
11247;SDS011;5681;53.316;13.950;2024-01-15T04:53:07;12.80;;;5.07;;
11247;SDS011;5681;53.316;13.950;2024-01-15T04:55:34;10.60;;;2.87;;
11247;SDS011;5681;53.316;13.950;2024-01-15T04:58:01;10.03;;;2.80;;
11247;SDS011;5681;53.316;13.950;2024-01-15T05:00:28;13.23;;;3.40;;
11247;SDS011;5681;53.316;13.950;2024-01-15T05:02:54;11.10;;;2.60;;
11247;SDS011;5681;53.316;13.950;2024-01-15T05:05:21;12.20;;;2.67;;
11247;SDS011;5681;53.316;13.950;2024-01-15T05:07:47;7.20;;;2.57;;
11247;SDS011;5681;53.316;13.950;2024-01-15T05:10:14;11.00;;;2.80;;
11247;SDS011;5681;53.316;13.950;2024-01-15T05:12:40;9.40;;;2.90;;
11247;SDS011;5681;53.316;13.950;2024-01-15T05:15:08;6.23;;;2.00;;
11247;SDS011;5681;53.316;13.950;2024-01-15T05:17:35;11.63;;;3.60;;
11247;SDS011;5681;53.316;13.950;2024-01-15T05:20:02;13.50;;;3.40;;
11247;SDS011;5681;53.316;13.950;2024-01-15T05:22:29;10.30;;;2.80;;
11247;SDS011;5681;53.316;13.950;2024-01-15T05:24:56;9.70;;;2.87;;
11247;SDS011;5681;53.316;13.950;2024-01-15T05:27:22;9.20;;;2.60;;
11247;SDS011;5681;53.316;13.950;2024-01-15T05:29:49;7.27;;;2.70;;
11247;SDS011;5681;53.316;13.950;2024-01-15T05:32:16;9.83;;;2.53;;
11247;SDS011;5681;53.316;13.950;2024-01-15T05:34:43;8.77;;;2.60;;
11247;SDS011;5681;53.316;13.950;2024-01-15T05:37:09;12.40;;;2.53;;
11247;SDS011;5681;53.316;13.950;2024-01-15T05:39:35;13.30;;;2.90;;
11247;SDS011;5681;53.316;13.950;2024-01-15T05:42:02;12.87;;;2.80;;
11247;SDS011;5681;53.316;13.950;2024-01-15T05:44:28;9.73;;;2.73;;
11247;SDS011;5681;53.316;13.950;2024-01-15T05:46:55;11.20;;;2.70;;
11247;SDS011;5681;53.316;13.950;2024-01-15T05:49:23;9.80;;;2.93;;
11247;SDS011;5681;53.316;13.950;2024-01-15T05:51:49;7.83;;;2.60;;
11247;SDS011;5681;53.316;13.950;2024-01-15T05:54:17;11.93;;;2.50;;
11247;SDS011;5681;53.316;13.950;2024-01-15T05:56:44;12.83;;;3.00;;
11247;SDS011;5681;53.316;13.950;2024-01-15T05:59:11;8.93;;;2.50;;
11247;SDS011;5681;53.316;13.950;2024-01-15T06:01:37;13.00;;;2.80;;
11247;SDS011;5681;53.316;13.950;2024-01-15T06:04:03;12.07;;;2.40;;
11247;SDS011;5681;53.316;13.950;2024-01-15T06:06:31;10.60;;;2.50;;
11247;SDS011;5681;53.316;13.950;2024-01-15T06:08:57;9.60;;;2.47;;
11247;SDS011;5681;53.316;13.950;2024-01-15T06:11:48;8.80;;;3.97;;
11247;SDS011;5681;53.316;13.950;2024-01-15T06:14:15;13.17;;;5.00;;
11247;SDS011;5681;53.316;13.950;2024-01-15T06:16:41;12.27;;;5.17;;
11247;SDS011;5681;53.316;13.950;2024-01-15T06:19:08;15.73;;;6.50;;
11247;SDS011;5681;53.316;13.950;2024-01-15T06:21:35;12.40;;;3.90;;
11247;SDS011;5681;53.316;13.950;2024-01-15T06:24:02;8.90;;;2.70;;
11247;SDS011;5681;53.316;13.950;2024-01-15T06:26:29;7.90;;;2.63;;
11247;SDS011;5681;53.316;13.950;2024-01-15T06:28:55;11.10;;;2.40;;
11247;SDS011;5681;53.316;13.950;2024-01-15T06:31:21;8.93;;;2.10;;
11247;SDS011;5681;53.316;13.950;2024-01-15T06:33:48;7.07;;;2.47;;
11247;SDS011;5681;53.316;13.950;2024-01-15T06:36:14;7.93;;;2.17;;
11247;SDS011;5681;53.316;13.950;2024-01-15T06:38:44;5.70;;;3.03;;
11247;SDS011;5681;53.316;13.950;2024-01-15T06:41:10;4.80;;;1.90;;
11247;SDS011;5681;53.316;13.950;2024-01-15T06:43:36;5.57;;;2.53;;
11247;SDS011;5681;53.316;13.950;2024-01-15T06:46:03;11.17;;;3.23;;
11247;SDS011;5681;53.316;13.950;2024-01-15T06:48:29;7.80;;;2.07;;
11247;SDS011;5681;53.316;13.950;2024-01-15T06:50:56;3.50;;;1.13;;
11247;SDS011;5681;53.316;13.950;2024-01-15T06:53:22;4.10;;;1.50;;
11247;SDS011;5681;53.316;13.950;2024-01-15T06:55:50;4.43;;;2.00;;
11247;SDS011;5681;53.316;13.950;2024-01-15T06:58:17;3.97;;;1.60;;
11247;SDS011;5681;53.316;13.950;2024-01-15T07:00:43;8.63;;;2.67;;
11247;SDS011;5681;53.316;13.950;2024-01-15T07:03:10;5.73;;;2.37;;
11247;SDS011;5681;53.316;13.950;2024-01-15T07:05:36;8.83;;;2.40;;
11247;SDS011;5681;53.316;13.950;2024-01-15T07:08:03;4.03;;;1.77;;
11247;SDS011;5681;53.316;13.950;2024-01-15T07:10:30;5.93;;;1.97;;
11247;SDS011;5681;53.316;13.950;2024-01-15T07:12:57;6.53;;;1.97;;
11247;SDS011;5681;53.316;13.950;2024-01-15T07:15:24;9.60;;;1.97;;
11247;SDS011;5681;53.316;13.950;2024-01-15T07:17:50;11.10;;;2.73;;
11247;SDS011;5681;53.316;13.950;2024-01-15T07:20:17;12.13;;;2.13;;
11247;SDS011;5681;53.316;13.950;2024-01-15T07:22:44;8.77;;;2.13;;
11247;SDS011;5681;53.316;13.950;2024-01-15T07:25:10;9.90;;;1.90;;
11247;SDS011;5681;53.316;13.950;2024-01-15T07:27:37;9.10;;;2.03;;
11247;SDS011;5681;53.316;13.950;2024-01-15T07:30:06;11.77;;;2.40;;
11247;SDS011;5681;53.316;13.950;2024-01-15T07:32:34;9.53;;;2.40;;
11247;SDS011;5681;53.316;13.950;2024-01-15T07:35:00;5.50;;;1.50;;
11247;SDS011;5681;53.316;13.950;2024-01-15T07:37:26;14.53;;;3.03;;
11247;SDS011;5681;53.316;13.950;2024-01-15T07:39:53;13.67;;;2.80;;
11247;SDS011;5681;53.316;13.950;2024-01-15T07:42:20;7.73;;;1.90;;
11247;SDS011;5681;53.316;13.950;2024-01-15T07:44:46;10.17;;;2.20;;
11247;SDS011;5681;53.316;13.950;2024-01-15T07:47:14;8.57;;;1.97;;
11247;SDS011;5681;53.316;13.950;2024-01-15T07:49:40;7.97;;;2.03;;
11247;SDS011;5681;53.316;13.950;2024-01-15T07:52:07;8.30;;;2.00;;
11247;SDS011;5681;53.316;13.950;2024-01-15T07:54:33;8.73;;;2.03;;
11247;SDS011;5681;53.316;13.950;2024-01-15T07:57:00;7.53;;;1.77;;
11247;SDS011;5681;53.316;13.950;2024-01-15T07:59:28;8.40;;;2.07;;
11247;SDS011;5681;53.316;13.950;2024-01-15T08:01:54;9.87;;;2.47;;
11247;SDS011;5681;53.316;13.950;2024-01-15T08:04:22;9.40;;;1.80;;
11247;SDS011;5681;53.316;13.950;2024-01-15T08:06:48;9.20;;;2.10;;
11247;SDS011;5681;53.316;13.950;2024-01-15T08:09:15;9.63;;;2.20;;
11247;SDS011;5681;53.316;13.950;2024-01-15T08:11:41;6.47;;;1.90;;
11247;SDS011;5681;53.316;13.950;2024-01-15T08:14:08;7.27;;;1.93;;
11247;SDS011;5681;53.316;13.950;2024-01-15T08:16:34;6.80;;;1.97;;
11247;SDS011;5681;53.316;13.950;2024-01-15T08:19:01;13.03;;;2.63;;
11247;SDS011;5681;53.316;13.950;2024-01-15T08:21:28;3.33;;;1.40;;
11247;SDS011;5681;53.316;13.950;2024-01-15T08:23:56;6.30;;;1.50;;
11247;SDS011;5681;53.316;13.950;2024-01-15T08:26:23;5.17;;;1.50;;
11247;SDS011;5681;53.316;13.950;2024-01-15T08:28:49;6.50;;;1.70;;
11247;SDS011;5681;53.316;13.950;2024-01-15T08:31:15;5.63;;;1.47;;
11247;SDS011;5681;53.316;13.950;2024-01-15T08:34:00;11.50;;;2.70;;
11247;SDS011;5681;53.316;13.950;2024-01-15T08:36:28;11.17;;;3.40;;
11247;SDS011;5681;53.316;13.950;2024-01-15T08:38:55;16.77;;;4.80;;
11247;SDS011;5681;53.316;13.950;2024-01-15T08:41:22;30.47;;;12.40;;
11247;SDS011;5681;53.316;13.950;2024-01-15T08:43:49;32.03;;;15.53;;
11247;SDS011;5681;53.316;13.950;2024-01-15T08:46:16;12.43;;;3.00;;
11247;SDS011;5681;53.316;13.950;2024-01-15T08:48:42;12.70;;;2.40;;
11247;SDS011;5681;53.316;13.950;2024-01-15T08:51:09;12.60;;;2.57;;
11247;SDS011;5681;53.316;13.950;2024-01-15T08:53:36;10.50;;;2.27;;
11247;SDS011;5681;53.316;13.950;2024-01-15T08:56:04;12.77;;;2.57;;
11247;SDS011;5681;53.316;13.950;2024-01-15T08:58:31;7.33;;;1.90;;
11247;SDS011;5681;53.316;13.950;2024-01-15T09:00:57;11.87;;;2.47;;
11247;SDS011;5681;53.316;13.950;2024-01-15T09:03:23;11.20;;;2.97;;
11247;SDS011;5681;53.316;13.950;2024-01-15T09:05:50;10.67;;;2.87;;
11247;SDS011;5681;53.316;13.950;2024-01-15T09:08:16;8.47;;;1.83;;
11247;SDS011;5681;53.316;13.950;2024-01-15T09:10:44;5.50;;;1.70;;
11247;SDS011;5681;53.316;13.950;2024-01-15T09:13:11;6.67;;;1.63;;
11247;SDS011;5681;53.316;13.950;2024-01-15T09:15:37;4.87;;;1.80;;
11247;SDS011;5681;53.316;13.950;2024-01-15T09:18:04;7.67;;;1.50;;
11247;SDS011;5681;53.316;13.950;2024-01-15T09:20:30;6.80;;;1.57;;
11247;SDS011;5681;53.316;13.950;2024-01-15T09:22:57;6.03;;;1.63;;
11247;SDS011;5681;53.316;13.950;2024-01-15T09:25:23;4.80;;;1.77;;
11247;SDS011;5681;53.316;13.950;2024-01-15T09:27:51;8.03;;;1.77;;
11247;SDS011;5681;53.316;13.950;2024-01-15T09:30:18;7.30;;;1.67;;
11247;SDS011;5681;53.316;13.950;2024-01-15T09:32:44;5.13;;;1.70;;
11247;SDS011;5681;53.316;13.950;2024-01-15T09:35:10;9.23;;;1.80;;
11247;SDS011;5681;53.316;13.950;2024-01-15T09:37:37;9.03;;;1.57;;
11247;SDS011;5681;53.316;13.950;2024-01-15T09:40:03;7.53;;;1.63;;
11247;SDS011;5681;53.316;13.950;2024-01-15T09:42:32;6.80;;;1.67;;
11247;SDS011;5681;53.316;13.950;2024-01-15T09:45:00;6.13;;;1.40;;
11247;SDS011;5681;53.316;13.950;2024-01-15T09:47:28;9.33;;;2.00;;
11247;SDS011;5681;53.316;13.950;2024-01-15T09:49:55;6.63;;;1.77;;
11247;SDS011;5681;53.316;13.950;2024-01-15T09:52:23;7.27;;;1.70;;
11247;SDS011;5681;53.316;13.950;2024-01-15T09:54:49;7.30;;;2.00;;
11247;SDS011;5681;53.316;13.950;2024-01-15T09:57:16;10.53;;;2.60;;
11247;SDS011;5681;53.316;13.950;2024-01-15T09:59:43;8.60;;;2.00;;
11247;SDS011;5681;53.316;13.950;2024-01-15T10:02:11;9.47;;;2.20;;
11247;SDS011;5681;53.316;13.950;2024-01-15T10:04:42;7.43;;;2.27;;
11247;SDS011;5681;53.316;13.950;2024-01-15T10:07:09;12.40;;;2.10;;
11247;SDS011;5681;53.316;13.950;2024-01-15T10:09:36;9.53;;;1.70;;
11247;SDS011;5681;53.316;13.950;2024-01-15T10:12:03;6.57;;;1.50;;
11247;SDS011;5681;53.316;13.950;2024-01-15T10:14:30;8.03;;;1.60;;
11247;SDS011;5681;53.316;13.950;2024-01-15T10:16:57;12.87;;;1.77;;
11247;SDS011;5681;53.316;13.950;2024-01-15T10:19:25;11.20;;;2.37;;
11247;SDS011;5681;53.316;13.950;2024-01-15T10:21:52;10.53;;;2.17;;
11247;SDS011;5681;53.316;13.950;2024-01-15T10:24:18;10.03;;;1.97;;
11247;SDS011;5681;53.316;13.950;2024-01-15T10:26:45;7.77;;;1.90;;
11247;SDS011;5681;53.316;13.950;2024-01-15T10:29:11;8.57;;;1.67;;
11247;SDS011;5681;53.316;13.950;2024-01-15T10:31:37;7.03;;;2.00;;
11247;SDS011;5681;53.316;13.950;2024-01-15T10:34:10;7.23;;;1.97;;
11247;SDS011;5681;53.316;13.950;2024-01-15T10:36:45;7.73;;;2.03;;
11247;SDS011;5681;53.316;13.950;2024-01-15T10:39:13;7.10;;;1.73;;
11247;SDS011;5681;53.316;13.950;2024-01-15T10:41:39;9.97;;;2.37;;
11247;SDS011;5681;53.316;13.950;2024-01-15T10:44:06;7.97;;;1.90;;
11247;SDS011;5681;53.316;13.950;2024-01-15T10:46:32;7.70;;;2.07;;
11247;SDS011;5681;53.316;13.950;2024-01-15T10:49:00;8.27;;;2.10;;
11247;SDS011;5681;53.316;13.950;2024-01-15T10:51:26;13.27;;;2.03;;
11247;SDS011;5681;53.316;13.950;2024-01-15T10:53:54;11.70;;;2.10;;
11247;SDS011;5681;53.316;13.950;2024-01-15T10:56:20;12.17;;;2.30;;
11247;SDS011;5681;53.316;13.950;2024-01-15T10:58:47;6.63;;;1.67;;
11247;SDS011;5681;53.316;13.950;2024-01-15T11:01:15;7.73;;;1.63;;
11247;SDS011;5681;53.316;13.950;2024-01-15T11:03:42;9.90;;;1.83;;
11247;SDS011;5681;53.316;13.950;2024-01-15T11:06:15;6.10;;;1.60;;
11247;SDS011;5681;53.316;13.950;2024-01-15T11:08:42;8.50;;;1.60;;
11247;SDS011;5681;53.316;13.950;2024-01-15T11:11:10;7.13;;;1.93;;
11247;SDS011;5681;53.316;13.950;2024-01-15T11:13:40;8.30;;;1.80;;
11247;SDS011;5681;53.316;13.950;2024-01-15T11:16:07;6.13;;;2.00;;
11247;SDS011;5681;53.316;13.950;2024-01-15T11:18:34;9.73;;;2.00;;
11247;SDS011;5681;53.316;13.950;2024-01-15T11:21:20;8.60;;;2.30;;
11247;SDS011;5681;53.316;13.950;2024-01-15T11:23:48;11.00;;;2.00;;
11247;SDS011;5681;53.316;13.950;2024-01-15T11:26:29;12.80;;;2.37;;
11247;SDS011;5681;53.316;13.950;2024-01-15T11:29:00;15.30;;;2.17;;
11247;SDS011;5681;53.316;13.950;2024-01-15T11:31:28;6.47;;;1.70;;
11247;SDS011;5681;53.316;13.950;2024-01-15T11:33:55;9.80;;;1.97;;
11247;SDS011;5681;53.316;13.950;2024-01-15T11:36:21;9.27;;;1.93;;
11247;SDS011;5681;53.316;13.950;2024-01-15T11:38:48;10.80;;;2.10;;
11247;SDS011;5681;53.316;13.950;2024-01-15T11:41:14;6.90;;;1.50;;
11247;SDS011;5681;53.316;13.950;2024-01-15T11:43:42;3.80;;;1.47;;
11247;SDS011;5681;53.316;13.950;2024-01-15T11:46:10;4.00;;;1.30;;
11247;SDS011;5681;53.316;13.950;2024-01-15T11:48:42;4.93;;;1.13;;
11247;SDS011;5681;53.316;13.950;2024-01-15T11:51:10;4.37;;;1.50;;
11247;SDS011;5681;53.316;13.950;2024-01-15T11:53:40;4.70;;;1.40;;
11247;SDS011;5681;53.316;13.950;2024-01-15T11:56:11;3.67;;;1.30;;
11247;SDS011;5681;53.316;13.950;2024-01-15T11:58:40;4.87;;;1.30;;
11247;SDS011;5681;53.316;13.950;2024-01-15T12:01:08;5.10;;;1.60;;
11247;SDS011;5681;53.316;13.950;2024-01-15T12:03:36;3.70;;;1.50;;
11247;SDS011;5681;53.316;13.950;2024-01-15T12:06:04;5.97;;;1.50;;
11247;SDS011;5681;53.316;13.950;2024-01-15T12:08:31;4.10;;;1.30;;
11247;SDS011;5681;53.316;13.950;2024-01-15T12:10:58;7.13;;;1.40;;
11247;SDS011;5681;53.316;13.950;2024-01-15T12:13:24;3.50;;;1.30;;
11247;SDS011;5681;53.316;13.950;2024-01-15T12:15:52;4.30;;;1.20;;
11247;SDS011;5681;53.316;13.950;2024-01-15T12:18:20;3.50;;;1.30;;
11247;SDS011;5681;53.316;13.950;2024-01-15T12:20:47;4.73;;;1.53;;
11247;SDS011;5681;53.316;13.950;2024-01-15T12:23:13;3.57;;;1.43;;
11247;SDS011;5681;53.316;13.950;2024-01-15T12:25:40;7.47;;;1.53;;
11247;SDS011;5681;53.316;13.950;2024-01-15T12:28:06;8.17;;;1.57;;
11247;SDS011;5681;53.316;13.950;2024-01-15T12:30:33;4.53;;;1.40;;
11247;SDS011;5681;53.316;13.950;2024-01-15T12:33:02;4.70;;;1.30;;
11247;SDS011;5681;53.316;13.950;2024-01-15T12:35:29;4.60;;;1.17;;
11247;SDS011;5681;53.316;13.950;2024-01-15T12:37:56;4.97;;;1.13;;
11247;SDS011;5681;53.316;13.950;2024-01-15T12:40:22;2.87;;;1.03;;
11247;SDS011;5681;53.316;13.950;2024-01-15T12:42:49;3.70;;;1.30;;
11247;SDS011;5681;53.316;13.950;2024-01-15T12:45:15;4.33;;;1.07;;
11247;SDS011;5681;53.316;13.950;2024-01-15T12:47:42;2.77;;;1.37;;
11247;SDS011;5681;53.316;13.950;2024-01-15T12:50:10;3.53;;;1.07;;
11247;SDS011;5681;53.316;13.950;2024-01-15T12:52:37;3.73;;;1.10;;
11247;SDS011;5681;53.316;13.950;2024-01-15T12:55:04;4.53;;;1.30;;
11247;SDS011;5681;53.316;13.950;2024-01-15T12:57:31;2.00;;;1.10;;
11247;SDS011;5681;53.316;13.950;2024-01-15T12:59:57;3.43;;;1.30;;
11247;SDS011;5681;53.316;13.950;2024-01-15T13:02:24;2.93;;;1.20;;
11247;SDS011;5681;53.316;13.950;2024-01-15T13:04:51;4.50;;;1.33;;
11247;SDS011;5681;53.316;13.950;2024-01-15T13:07:20;4.37;;;1.30;;
11247;SDS011;5681;53.316;13.950;2024-01-15T13:09:46;7.70;;;1.53;;
11247;SDS011;5681;53.316;13.950;2024-01-15T13:12:17;3.57;;;1.23;;
11247;SDS011;5681;53.316;13.950;2024-01-15T13:14:43;4.93;;;1.40;;
11247;SDS011;5681;53.316;13.950;2024-01-15T13:17:09;4.00;;;1.23;;
11247;SDS011;5681;53.316;13.950;2024-01-15T13:19:36;5.60;;;1.50;;
11247;SDS011;5681;53.316;13.950;2024-01-15T13:22:03;3.53;;;1.40;;
11247;SDS011;5681;53.316;13.950;2024-01-15T13:24:33;3.73;;;1.30;;
11247;SDS011;5681;53.316;13.950;2024-01-15T13:27:01;5.27;;;1.53;;
11247;SDS011;5681;53.316;13.950;2024-01-15T13:29:27;4.73;;;1.50;;
11247;SDS011;5681;53.316;13.950;2024-01-15T13:31:53;4.23;;;1.40;;
11247;SDS011;5681;53.316;13.950;2024-01-15T13:34:20;2.23;;;1.13;;
11247;SDS011;5681;53.316;13.950;2024-01-15T13:36:46;5.00;;;1.40;;
11247;SDS011;5681;53.316;13.950;2024-01-15T13:39:13;3.80;;;1.30;;
11247;SDS011;5681;53.316;13.950;2024-01-15T13:41:40;2.17;;;1.17;;
11247;SDS011;5681;53.316;13.950;2024-01-15T13:44:09;6.50;;;1.30;;
11247;SDS011;5681;53.316;13.950;2024-01-15T13:46:35;2.80;;;1.33;;
11247;SDS011;5681;53.316;13.950;2024-01-15T13:49:03;5.27;;;1.30;;
11247;SDS011;5681;53.316;13.950;2024-01-15T13:51:30;4.60;;;1.10;;
11247;SDS011;5681;53.316;13.950;2024-01-15T13:53:57;6.80;;;1.60;;
11247;SDS011;5681;53.316;13.950;2024-01-15T13:56:23;3.43;;;1.20;;
11247;SDS011;5681;53.316;13.950;2024-01-15T13:58:51;4.13;;;1.00;;
11247;SDS011;5681;53.316;13.950;2024-01-15T14:01:17;2.53;;;1.20;;
11247;SDS011;5681;53.316;13.950;2024-01-15T14:03:44;2.63;;;1.13;;
11247;SDS011;5681;53.316;13.950;2024-01-15T14:06:10;3.73;;;1.20;;
11247;SDS011;5681;53.316;13.950;2024-01-15T14:08:37;3.10;;;0.90;;
11247;SDS011;5681;53.316;13.950;2024-01-15T14:11:03;4.33;;;1.10;;
11247;SDS011;5681;53.316;13.950;2024-01-15T14:13:31;4.97;;;1.10;;
11247;SDS011;5681;53.316;13.950;2024-01-15T14:15:58;1.63;;;1.07;;
11247;SDS011;5681;53.316;13.950;2024-01-15T14:18:25;3.63;;;1.40;;
11247;SDS011;5681;53.316;13.950;2024-01-15T14:20:52;2.77;;;1.00;;
11247;SDS011;5681;53.316;13.950;2024-01-15T14:23:19;4.80;;;1.30;;
11247;SDS011;5681;53.316;13.950;2024-01-15T14:25:45;3.57;;;1.20;;
11247;SDS011;5681;53.316;13.950;2024-01-15T14:28:12;4.53;;;1.30;;
11247;SDS011;5681;53.316;13.950;2024-01-15T14:30:38;3.17;;;1.00;;
11247;SDS011;5681;53.316;13.950;2024-01-15T14:33:06;4.80;;;1.30;;
11247;SDS011;5681;53.316;13.950;2024-01-15T14:35:33;2.43;;;1.10;;
11247;SDS011;5681;53.316;13.950;2024-01-15T14:37:59;3.37;;;1.07;;
11247;SDS011;5681;53.316;13.950;2024-01-15T14:40:26;3.50;;;1.20;;